AirNav   Everest Fuels
 
 1528 users online  

NE76 St Francis Medical Center Heliport
Grand Island, Nebraska, USA

GOING TO GRAND ISLAND?


FAA INFORMATION EFFECTIVE 05 DECEMBER 2019

Location

FAA Identifier: NE76
Lat/Long: 40-55-32.4900N 098-22-15.3000W
40-55.541500N 098-22.255000W
40.9256917,-98.3709167
(estimated)
Elevation: 2106 ft. / 642 m (estimated)
Variation: 07E (1990)
Time zone: UTC -6 (UTC -5 during Daylight Saving Time)
Zip code: 68803

Heliport Operations

Heliport use: Private use, MEDICAL USE.
Activation date: 02/1994
Control tower: no
ARTCC: MINNEAPOLIS CENTER
FSS: COLUMBUS FLIGHT SERVICE STATION
Attendance: CONTINUOUS
Wind indicator: yes
Segmented circle: no

Heliport Communications

WX ASOS at GRI (4 nm NE): PHONE 308-382-5590
WX AWOS-3 at AUH (17 nm E): 121.225 (402-694-5472)
WX ASOS at HSI (19 nm S): 120.525 (402-463-4029)

Nearby radio navigation aids

VOR radial/distance  VOR name  Freq  Var
GRIr209/4.3GRAND ISLAND VOR/DME112.0007E
HSIr001/19.5HASTINGS VOR/DME108.8007E
OBHr175/27.0WOLBACH VORTAC114.8007E
EARr062/(31.2)KEARNEY VOR111.2005E

 
NDB name  Hdg/Dist  Freq  Var  ID
SANCY314/4.138007EGR --. .-.
YORK267/34.225706EJYR .--- -.-- .-.

Heliport Services

Runway Information

Helipad H1

Dimensions: 45 x 45 ft. / 14 x 14 m
Surface: concrete
Latitude: 40-55.558167N
Longitude: 098-22.255000W
Elevation: 2106.0 ft.
Traffic pattern: leftleft

Heliport Ownership and Management from official FAA records

Ownership: Privately-owned
Owner: SAINT FRANCIS MED CENTER
2620 W FAIDLEY AVE BOX 9804
GRAND ISLAND, NE 68802
Phone 308-384-4600
Manager: DAVE KOZAK
2620 W FAIDLEY AVE BOX 9804
GRAND ISLAND, NE 68802
Phone 308-384-4600

Additional Remarks

FOR CD CTC MINNEAPOLIS ARTCC AT 651-463-5588.

Instrument Procedures

There are no published instrument procedures at NE76.

Some nearby airports with instrument procedures:

KGRI - Central Nebraska Regional Airport (4 nm NE)
KAUH - Aurora Municipal Airport - Al Potter Field (17 nm E)
07K - Central City Municipal Airport - Larry Reineke Field (18 nm NE)
KHSI - Hastings Municipal Airport (19 nm S)
08K - Harvard State Airport (21 nm SE)
 
Loc | Ops | Rwys | IFR | FBO | Links
Com | Nav | Svcs | Stats | Notes

Silverhawk Aviation, Inc.
AirBoss

 
Area around NE76 (St Francis Medical Center Heliport)
 
Road maps at: MapQuest Bing Google
 
Aerial photo
No photo
 
Sectional chart

 
Airport distance calculator
Flying to St Francis Medical Center Heliport? Find the distance to fly.

From to NE76

Sunrise and sunset
Times for 06-Dec-2019
 Local
(UTC-6)
 Zulu
(UTC)
Morning civil twilight07:1413:14
Sunrise07:4513:45
Sunset17:0423:04
Evening civil twilight17:3523:35

Current date and time
Zulu (UTC)  06-Dec-2019 16:34:24
Local (UTC-6)  06-Dec-2019 10:34:24
 
METAR
KGRI 
3nm NE 
061553Z 29003KT 10SM OVC012 M01/M06 A3041 RMK AO2 SLP320 T10111056
KAUH 
17nm E 
061615Z AUTO 35004KT 10SM OVC010 M01/M03 A3042 RMK AO2 T10061031
KHSI 
20nm S 
061553Z AUTO 01004KT 10SM BKN010 M01/M04 A3041 RMK AO2 SLP317 T10111044
TAF
KGRI 
3nm NE 
061606Z 0616/0712 VRB05KT P6SM BKN012 FM061700 VRB06KT P6SM SCT045 FM070700 20011KT P6SM SKC
NOTAMs
Click for the latest NOTAMs
NOTAMs are issued by the DoD/FAA and will open in a separate window not controlled by AirNav.

 

 
 

Would you like to see your business listed on this page?

 If your business provides an interesting product or service to pilots, flight crews, aircraft, or users of the St Francis Medical Center Heliport, you should consider listing it here.  To start the listing process, click on the button below
 
Add a business
 

Other Pages about St Francis Medical Center Heliport

Update a link
 
Copyright © AirNav, LLC. All rights reserved. Privacy Policy  Contact